sensor_id;sensor_type;location;lat;lon;timestamp;pressure;altitude;pressure_sealevel;temperature;humidity
44385;BME280;30101;32.778;34.994;2022-07-23T00:02:37;97082.13;;;24.47;76.07
44385;BME280;30101;32.778;34.994;2022-07-23T00:07:41;97073.75;;;24.43;76.03
44385;BME280;30101;32.778;34.994;2022-07-23T00:12:44;97072.16;;;24.42;75.80
44385;BME280;30101;32.778;34.994;2022-07-23T00:17:54;97074.41;;;24.40;76.30
44385;BME280;30101;32.778;34.994;2022-07-23T00:22:58;97071.34;;;24.42;75.92
44385;BME280;30101;32.778;34.994;2022-07-23T00:28:02;97072.47;;;24.41;76.15
44385;BME280;30101;32.778;34.994;2022-07-23T00:33:08;97072.16;;;24.42;76.02
44385;BME280;30101;32.778;34.994;2022-07-23T00:38:12;97071.34;;;24.42;75.77
44385;BME280;30101;32.778;34.994;2022-07-23T00:43:16;97083.72;;;24.39;75.84
44385;BME280;30101;32.778;34.994;2022-07-23T00:48:19;97079.66;;;24.37;76.01
44385;BME280;30101;32.778;34.994;2022-07-23T00:53:23;97085.78;;;24.34;75.82
44385;BME280;30101;32.778;34.994;2022-07-23T00:58:27;97094.75;;;24.34;76.19
44385;BME280;30101;32.778;34.994;2022-07-23T01:03:31;97092.31;;;24.33;76.50
44385;BME280;30101;32.778;34.994;2022-07-23T01:08:34;97087.47;;;24.30;76.56
44385;BME280;30101;32.778;34.994;2022-07-23T01:13:42;97090.34;;;24.25;76.72
44385;BME280;30101;32.778;34.994;2022-07-23T01:18:46;97089.88;;;24.22;76.34
44385;BME280;30101;32.778;34.994;2022-07-23T01:23:50;97084.41;;;24.22;76.19
44385;BME280;30101;32.778;34.994;2022-07-23T01:28:54;97089.38;;;24.20;76.67
44385;BME280;30101;32.778;34.994;2022-07-23T01:33:58;97085.84;;;24.20;76.48
44385;BME280;30101;32.778;34.994;2022-07-23T01:39:05;97087.25;;;24.17;76.41
44385;BME280;30101;32.778;34.994;2022-07-23T01:44:09;97077.47;;;24.16;76.89
44385;BME280;30101;32.778;34.994;2022-07-23T01:49:15;97086.78;;;24.15;76.81
44385;BME280;30101;32.778;34.994;2022-07-23T01:54:34;97084.06;;;24.15;76.90
44385;BME280;30101;32.778;34.994;2022-07-23T01:59:42;97079.41;;;24.16;76.85
44385;BME280;30101;32.778;34.994;2022-07-23T02:04:46;97085.66;;;24.16;77.10
44385;BME280;30101;32.778;34.994;2022-07-23T02:09:52;97082.44;;;24.14;77.13
44385;BME280;30101;32.778;34.994;2022-07-23T02:14:56;97085.47;;;24.13;76.98
44385;BME280;30101;32.778;34.994;2022-07-23T02:20:00;97098.63;;;24.11;77.39
44385;BME280;30101;32.778;34.994;2022-07-23T02:25:06;97089.66;;;24.10;77.29
44385;BME280;30101;32.778;34.994;2022-07-23T02:30:10;97090.44;;;24.11;77.14
44385;BME280;30101;32.778;34.994;2022-07-23T02:35:14;97091.25;;;24.11;77.28
44385;BME280;30101;32.778;34.994;2022-07-23T02:40:19;97094.28;;;24.10;77.56
44385;BME280;30101;32.778;34.994;2022-07-23T02:45:23;97094.63;;;24.08;77.16
44385;BME280;30101;32.778;34.994;2022-07-23T02:50:30;97098.16;;;24.09;77.04
44385;BME280;30101;32.778;34.994;2022-07-23T02:55:36;97098.44;;;24.07;77.23
44385;BME280;30101;32.778;34.994;2022-07-23T03:00:39;97090.25;;;24.07;77.47
44385;BME280;30101;32.778;34.994;2022-07-23T03:05:43;97097.50;;;24.12;77.51
44385;BME280;30101;32.778;34.994;2022-07-23T03:10:47;97096.38;;;24.13;77.48
44385;BME280;30101;32.778;34.994;2022-07-23T03:15:52;97093.66;;;24.13;77.54
44385;BME280;30101;32.778;34.994;2022-07-23T03:20:56;97096.91;;;24.15;77.40
44385;BME280;30101;32.778;34.994;2022-07-23T03:26:01;97094.97;;;24.15;77.65
44385;BME280;30101;32.778;34.994;2022-07-23T03:31:05;97100.09;;;24.17;77.19
44385;BME280;30101;32.778;34.994;2022-07-23T03:36:09;97100.59;;;24.19;77.00
44385;BME280;30101;32.778;34.994;2022-07-23T03:41:16;97103.03;;;24.20;77.44
44385;BME280;30101;32.778;34.994;2022-07-23T03:46:20;97096.13;;;24.23;77.27
44385;BME280;30101;32.778;34.994;2022-07-23T03:51:24;97097.41;;;24.26;77.02
44385;BME280;30101;32.778;34.994;2022-07-23T03:56:27;97094.84;;;24.29;77.26
44385;BME280;30101;32.778;34.994;2022-07-23T04:01:31;97103.44;;;24.36;76.98
44385;BME280;30101;32.778;34.994;2022-07-23T04:06:35;97095.91;;;24.42;77.10
44385;BME280;30101;32.778;34.994;2022-07-23T04:11:39;97106.34;;;24.48;76.95
44385;BME280;30101;32.778;34.994;2022-07-23T04:16:43;97099.31;;;24.56;77.12
44385;BME280;30101;32.778;34.994;2022-07-23T04:21:47;97101.56;;;24.63;76.45
44385;BME280;30101;32.778;34.994;2022-07-23T04:26:51;97097.28;;;24.70;76.48
44385;BME280;30101;32.778;34.994;2022-07-23T04:31:55;97099.56;;;24.77;76.24
44385;BME280;30101;32.778;34.994;2022-07-23T04:36:59;97109.34;;;24.87;76.13
44385;BME280;30101;32.778;34.994;2022-07-23T04:42:06;97111.28;;;24.95;76.18
44385;BME280;30101;32.778;34.994;2022-07-23T04:47:09;97108.91;;;25.02;75.79
44385;BME280;30101;32.778;34.994;2022-07-23T04:52:18;97108.75;;;25.07;75.70
44385;BME280;30101;32.778;34.994;2022-07-23T04:57:21;97108.00;;;25.15;75.46
44385;BME280;30101;32.778;34.994;2022-07-23T05:02:25;97118.28;;;25.27;75.54
44385;BME280;30101;32.778;34.994;2022-07-23T05:07:29;97112.97;;;25.39;74.80
44385;BME280;30101;32.778;34.994;2022-07-23T05:12:33;97107.84;;;25.46;74.87
44385;BME280;30101;32.778;34.994;2022-07-23T05:17:37;97115.38;;;25.67;74.27
44385;BME280;30101;32.778;34.994;2022-07-23T05:22:47;97113.75;;;25.92;73.79
44385;BME280;30101;32.778;34.994;2022-07-23T05:27:52;97114.78;;;26.25;72.98
44385;BME280;30101;32.778;34.994;2022-07-23T05:32:55;97113.28;;;26.75;72.18
44385;BME280;30101;32.778;34.994;2022-07-23T05:37:59;97115.44;;;27.82;70.76
44385;BME280;30101;32.778;34.994;2022-07-23T05:43:03;97115.78;;;29.36;66.74
44385;BME280;30101;32.778;34.994;2022-07-23T05:48:07;97122.38;;;29.60;66.11
44385;BME280;30101;32.778;34.994;2022-07-23T05:53:19;97116.34;;;29.42;65.79
44385;BME280;30101;32.778;34.994;2022-07-23T05:58:38;97127.50;;;29.21;65.69
44385;BME280;30101;32.778;34.994;2022-07-23T06:03:43;97137.94;;;29.03;65.55
44385;BME280;30101;32.778;34.994;2022-07-23T06:08:47;97130.59;;;28.83;65.27
44385;BME280;30101;32.778;34.994;2022-07-23T06:13:51;97128.63;;;28.46;66.13
44385;BME280;30101;32.778;34.994;2022-07-23T06:18:59;97130.56;;;28.34;65.85
44385;BME280;30101;32.778;34.994;2022-07-23T06:24:06;97122.50;;;28.74;64.63
44385;BME280;30101;32.778;34.994;2022-07-23T06:29:10;97122.84;;;28.60;64.86
44385;BME280;30101;32.778;34.994;2022-07-23T06:34:13;97136.22;;;28.74;64.74
44385;BME280;30101;32.778;34.994;2022-07-23T06:39:17;97134.09;;;31.42;58.55
44385;BME280;30101;32.778;34.994;2022-07-23T06:44:23;97130.06;;;34.74;51.63
44385;BME280;30101;32.778;34.994;2022-07-23T06:49:29;97139.72;;;36.68;47.88
44385;BME280;30101;32.778;34.994;2022-07-23T06:54:33;97134.56;;;36.88;47.99
44385;BME280;30101;32.778;34.994;2022-07-23T06:59:36;97132.16;;;36.62;49.21
44385;BME280;30101;32.778;34.994;2022-07-23T07:04:40;97136.41;;;36.06;50.61
44385;BME280;30101;32.778;34.994;2022-07-23T07:09:44;97135.72;;;36.41;49.70
44385;BME280;30101;32.778;34.994;2022-07-23T07:14:50;97140.09;;;37.17;47.64
44385;BME280;30101;32.778;34.994;2022-07-23T07:19:54;97149.09;;;37.82;46.08
44385;BME280;30101;32.778;34.994;2022-07-23T07:25:01;97141.88;;;37.95;45.23
44385;BME280;30101;32.778;34.994;2022-07-23T07:30:06;97141.13;;;37.87;45.36
44385;BME280;30101;32.778;34.994;2022-07-23T07:35:09;97140.34;;;37.79;45.40
44385;BME280;30101;32.778;34.994;2022-07-23T07:40:13;97128.53;;;37.47;45.89
44385;BME280;30101;32.778;34.994;2022-07-23T07:45:20;97134.91;;;37.30;46.12
44385;BME280;30101;32.778;34.994;2022-07-23T07:50:27;97125.00;;;36.68;47.25
44385;BME280;30101;32.778;34.994;2022-07-23T07:55:31;97135.50;;;35.80;48.84
44385;BME280;30101;32.778;34.994;2022-07-23T08:00:34;97121.66;;;34.63;50.49
44385;BME280;30101;32.778;34.994;2022-07-23T08:05:38;97127.56;;;33.87;51.57
44385;BME280;30101;32.778;34.994;2022-07-23T08:10:41;97128.84;;;33.60;51.92
44385;BME280;30101;32.778;34.994;2022-07-23T08:15:45;97123.44;;;33.40;52.40
44385;BME280;30101;32.778;34.994;2022-07-23T08:20:48;97124.41;;;33.55;52.03
44385;BME280;30101;32.778;34.994;2022-07-23T08:25:52;97125.66;;;33.58;51.71
44385;BME280;30101;32.778;34.994;2022-07-23T08:30:56;97120.63;;;33.67;51.73
44385;BME280;30101;32.778;34.994;2022-07-23T08:36:00;97124.25;;;33.41;51.78
44385;BME280;30101;32.778;34.994;2022-07-23T08:41:07;97130.34;;;33.27;52.14
44385;BME280;30101;32.778;34.994;2022-07-23T08:46:13;97121.69;;;33.28;51.94
44385;BME280;30101;32.778;34.994;2022-07-23T08:51:17;97124.53;;;33.36;51.71
44385;BME280;30101;32.778;34.994;2022-07-23T08:56:20;97118.50;;;33.26;51.69
44385;BME280;30101;32.778;34.994;2022-07-23T09:01:23;97116.59;;;33.04;51.56
44385;BME280;30101;32.778;34.994;2022-07-23T09:06:27;97116.91;;;32.99;51.68
44385;BME280;30101;32.778;34.994;2022-07-23T09:11:30;97112.50;;;32.94;52.00
44385;BME280;30101;32.778;34.994;2022-07-23T09:16:35;97116.44;;;32.70;51.62
44385;BME280;30101;32.778;34.994;2022-07-23T09:21:39;97105.06;;;32.30;52.26
44385;BME280;30101;32.778;34.994;2022-07-23T09:26:47;97102.34;;;32.10;52.52
44385;BME280;30101;32.778;34.994;2022-07-23T09:32:00;97110.81;;;31.98;52.74
44385;BME280;30101;32.778;34.994;2022-07-23T09:37:13;97099.34;;;31.77;53.47
44385;BME280;30101;32.778;34.994;2022-07-23T09:42:24;97094.84;;;31.68;53.22
44385;BME280;30101;32.778;34.994;2022-07-23T09:47:31;97087.56;;;31.60;53.39
44385;BME280;30101;32.778;34.994;2022-07-23T09:52:41;97082.13;;;31.64;53.65
44385;BME280;30101;32.778;34.994;2022-07-23T09:57:46;97076.59;;;31.64;53.41
44385;BME280;30101;32.778;34.994;2022-07-23T10:02:51;97076.91;;;31.59;53.78
44385;BME280;30101;32.778;34.994;2022-07-23T10:08:07;97070.44;;;31.71;53.79
44385;BME280;30101;32.778;34.994;2022-07-23T10:13:30;97069.00;;;31.57;53.55
44385;BME280;30101;32.778;34.994;2022-07-23T10:18:35;97074.44;;;31.34;54.06
44385;BME280;30101;32.778;34.994;2022-07-23T10:24:12;97078.47;;;31.21;53.99
44385;BME280;30101;32.778;34.994;2022-07-23T10:34:42;97069.50;;;31.08;54.45
44385;BME280;30101;32.778;34.994;2022-07-23T10:39:47;97068.56;;;31.01;54.68
44385;BME280;30101;32.778;34.994;2022-07-23T10:44:51;97064.91;;;30.97;54.80
44385;BME280;30101;32.778;34.994;2022-07-23T11:00:30;97060.97;;;30.78;55.42
44385;BME280;30101;32.778;34.994;2022-07-23T11:05:42;97059.56;;;30.69;55.27
44385;BME280;30101;32.778;34.994;2022-07-23T11:11:08;97051.28;;;30.53;55.39
44385;BME280;30101;32.778;34.994;2022-07-23T11:16:17;97040.56;;;30.32;56.20
44385;BME280;30101;32.778;34.994;2022-07-23T11:32:34;97030.13;;;30.09;56.39
44385;BME280;30101;32.778;34.994;2022-07-23T11:37:38;97026.03;;;30.03;56.79
44385;BME280;30101;32.778;34.994;2022-07-23T11:42:57;97030.50;;;29.92;56.83
44385;BME280;30101;32.778;34.994;2022-07-23T11:48:02;97031.81;;;29.82;57.24
44385;BME280;30101;32.778;34.994;2022-07-23T11:53:06;97032.41;;;29.76;57.51
44385;BME280;30101;32.778;34.994;2022-07-23T11:58:09;97023.78;;;29.62;57.76
44385;BME280;30101;32.778;34.994;2022-07-23T12:03:13;97027.84;;;29.52;58.64
44385;BME280;30101;32.778;34.994;2022-07-23T12:08:16;97014.09;;;29.52;58.68
44385;BME280;30101;32.778;34.994;2022-07-23T12:13:21;97021.06;;;29.49;58.29
44385;BME280;30101;32.778;34.994;2022-07-23T12:18:26;97006.84;;;29.47;58.93
44385;BME280;30101;32.778;34.994;2022-07-23T12:23:29;97011.66;;;29.50;59.12
44385;BME280;30101;32.778;34.994;2022-07-23T12:28:34;97006.84;;;29.47;59.17
44385;BME280;30101;32.778;34.994;2022-07-23T12:33:39;97009.78;;;29.39;59.29
44385;BME280;30101;32.778;34.994;2022-07-23T12:38:47;97006.66;;;29.40;58.97
44385;BME280;30101;32.778;34.994;2022-07-23T12:43:51;96997.00;;;29.46;59.27
44385;BME280;30101;32.778;34.994;2022-07-23T12:48:55;97003.34;;;29.35;59.85
44385;BME280;30101;32.778;34.994;2022-07-23T12:54:06;96993.31;;;29.26;60.03
44385;BME280;30101;32.778;34.994;2022-07-23T12:59:12;97000.56;;;29.19;59.78
44385;BME280;30101;32.778;34.994;2022-07-23T13:04:21;96996.91;;;29.15;59.96
44385;BME280;30101;32.778;34.994;2022-07-23T13:09:30;96988.53;;;29.23;60.33
44385;BME280;30101;32.778;34.994;2022-07-23T13:14:38;96992.53;;;29.26;60.24
44385;BME280;30101;32.778;34.994;2022-07-23T13:19:42;96981.22;;;29.15;60.59
44385;BME280;30101;32.778;34.994;2022-07-23T13:24:49;96976.63;;;29.19;60.79
44385;BME280;30101;32.778;34.994;2022-07-23T13:29:52;96977.88;;;29.22;60.36
44385;BME280;30101;32.778;34.994;2022-07-23T13:34:56;96970.97;;;29.28;60.09
44385;BME280;30101;32.778;34.994;2022-07-23T13:39:59;96974.00;;;29.23;60.43
44385;BME280;30101;32.778;34.994;2022-07-23T13:45:04;96968.03;;;29.21;60.84
44385;BME280;30101;32.778;34.994;2022-07-23T13:50:14;96956.53;;;29.03;60.80
44385;BME280;30101;32.778;34.994;2022-07-23T13:55:19;96964.78;;;28.91;61.12
44385;BME280;30101;32.778;34.994;2022-07-23T14:00:24;96975.72;;;28.75;61.83
44385;BME280;30101;32.778;34.994;2022-07-23T14:05:47;96967.63;;;28.66;62.13
44385;BME280;30101;32.778;34.994;2022-07-23T14:10:51;96960.66;;;28.57;61.94
44385;BME280;30101;32.778;34.994;2022-07-23T14:15:55;96955.88;;;28.41;62.72
44385;BME280;30101;32.778;34.994;2022-07-23T14:20:59;96952.66;;;28.39;62.89
44385;BME280;30101;32.778;34.994;2022-07-23T14:26:04;96952.22;;;28.37;62.60
44385;BME280;30101;32.778;34.994;2022-07-23T14:31:07;96944.66;;;28.34;62.71
44385;BME280;30101;32.778;34.994;2022-07-23T14:36:23;96947.28;;;28.31;62.81
44385;BME280;30101;32.778;34.994;2022-07-23T14:41:27;96944.78;;;28.38;62.88
44385;BME280;30101;32.778;34.994;2022-07-23T14:46:32;96950.16;;;28.34;63.31
44385;BME280;30101;32.778;34.994;2022-07-23T14:51:36;96944.06;;;28.41;62.78
44385;BME280;30101;32.778;34.994;2022-07-23T14:56:41;96949.91;;;28.39;63.15
44385;BME280;30101;32.778;34.994;2022-07-23T15:01:44;96942.72;;;28.22;63.27
44385;BME280;30101;32.778;34.994;2022-07-23T15:06:48;96952.22;;;28.13;63.46
44385;BME280;30101;32.778;34.994;2022-07-23T15:11:52;96950.84;;;28.07;63.87
44385;BME280;30101;32.778;34.994;2022-07-23T15:16:55;96950.03;;;27.94;64.11
44385;BME280;30101;32.778;34.994;2022-07-23T15:21:59;96946.94;;;27.95;64.11
44385;BME280;30101;32.778;34.994;2022-07-23T15:27:23;96951.28;;;27.96;64.25
44385;BME280;30101;32.778;34.994;2022-07-23T15:32:27;96955.28;;;27.87;64.09
44385;BME280;30101;32.778;34.994;2022-07-23T15:37:31;96952.41;;;27.71;64.46
44385;BME280;30101;32.778;34.994;2022-07-23T15:42:37;96951.56;;;27.58;64.76
44385;BME280;30101;32.778;34.994;2022-07-23T15:47:41;96952.69;;;27.45;65.10
44385;BME280;30101;32.778;34.994;2022-07-23T15:52:45;96951.28;;;27.39;65.26
44385;BME280;30101;32.778;34.994;2022-07-23T15:57:51;96947.84;;;27.30;65.53
44385;BME280;30101;32.778;34.994;2022-07-23T16:02:56;96949.41;;;27.19;66.01
44385;BME280;30101;32.778;34.994;2022-07-23T16:08:08;96943.69;;;27.11;66.25
44385;BME280;30101;32.778;34.994;2022-07-23T16:13:12;96946.75;;;27.10;66.43
44385;BME280;30101;32.778;34.994;2022-07-23T16:18:16;96948.56;;;27.06;66.55
44385;BME280;30101;32.778;34.994;2022-07-23T16:23:19;96943.94;;;26.98;66.72
44385;BME280;30101;32.778;34.994;2022-07-23T16:28:23;96949.63;;;26.93;66.90
44385;BME280;30101;32.778;34.994;2022-07-23T16:33:27;96953.72;;;26.86;67.35
44385;BME280;30101;32.778;34.994;2022-07-23T16:38:33;96952.31;;;26.80;67.61
44385;BME280;30101;32.778;34.994;2022-07-23T16:43:37;96959.91;;;26.75;67.49
44385;BME280;30101;32.778;34.994;2022-07-23T16:48:41;96951.63;;;26.62;67.55
44385;BME280;30101;32.778;34.994;2022-07-23T16:53:44;96961.06;;;26.53;67.94
44385;BME280;30101;32.778;34.994;2022-07-23T16:58:49;96962.84;;;26.49;68.05
44385;BME280;30101;32.778;34.994;2022-07-23T17:03:53;96967.72;;;26.43;68.28
44385;BME280;30101;32.778;34.994;2022-07-23T17:08:57;96961.00;;;26.41;68.10
44385;BME280;30101;32.778;34.994;2022-07-23T17:14:08;96958.88;;;26.38;68.65
44385;BME280;30101;32.778;34.994;2022-07-23T17:19:18;96966.00;;;26.30;68.70
44385;BME280;30101;32.778;34.994;2022-07-23T17:24:21;96964.59;;;26.24;68.87
44385;BME280;30101;32.778;34.994;2022-07-23T17:29:26;96959.31;;;26.19;68.79
44385;BME280;30101;32.778;34.994;2022-07-23T17:34:30;96965.44;;;26.16;68.84
44385;BME280;30101;32.778;34.994;2022-07-23T17:39:34;96969.16;;;26.11;69.29
44385;BME280;30101;32.778;34.994;2022-07-23T17:44:37;96974.19;;;26.09;69.05
44385;BME280;30101;32.778;34.994;2022-07-23T17:49:41;96971.28;;;26.05;69.30
44385;BME280;30101;32.778;34.994;2022-07-23T17:54:45;96975.81;;;26.01;69.51
44385;BME280;30101;32.778;34.994;2022-07-23T17:59:48;96979.22;;;25.98;70.00
44385;BME280;30101;32.778;34.994;2022-07-23T18:04:52;96980.00;;;25.99;69.82
44385;BME280;30101;32.778;34.994;2022-07-23T18:09:58;96987.75;;;25.97;70.21
44385;BME280;30101;32.778;34.994;2022-07-23T18:15:03;96992.44;;;25.96;70.33
44385;BME280;30101;32.778;34.994;2022-07-23T18:20:10;96988.56;;;25.97;70.35
44385;BME280;30101;32.778;34.994;2022-07-23T18:25:13;96991.94;;;25.94;70.77
44385;BME280;30101;32.778;34.994;2022-07-23T18:30:17;96998.19;;;25.95;71.00
44385;BME280;30101;32.778;34.994;2022-07-23T18:35:20;97001.28;;;25.93;71.03
44385;BME280;30101;32.778;34.994;2022-07-23T18:40:25;97003.03;;;25.89;71.17
44385;BME280;30101;32.778;34.994;2022-07-23T18:45:30;97004.50;;;25.87;71.27
44385;BME280;30101;32.778;34.994;2022-07-23T18:50:34;97007.72;;;25.89;71.33
44385;BME280;30101;32.778;34.994;2022-07-23T18:55:40;97003.38;;;25.88;71.63
44385;BME280;30101;32.778;34.994;2022-07-23T19:00:46;96999.38;;;25.85;71.55
44385;BME280;30101;32.778;34.994;2022-07-23T19:05:50;97005.66;;;25.86;71.84
44385;BME280;30101;32.778;34.994;2022-07-23T19:10:57;97001.78;;;25.87;71.63
44385;BME280;30101;32.778;34.994;2022-07-23T19:16:04;97002.75;;;25.82;72.01
44385;BME280;30101;32.778;34.994;2022-07-23T19:21:10;96997.47;;;25.77;71.74
44385;BME280;30101;32.778;34.994;2022-07-23T19:26:19;96989.13;;;25.73;71.94
44385;BME280;30101;32.778;34.994;2022-07-23T19:31:23;96993.28;;;25.71;71.78
44385;BME280;30101;32.778;34.994;2022-07-23T19:36:27;96992.47;;;25.70;72.38
44385;BME280;30101;32.778;34.994;2022-07-23T19:41:31;96989.72;;;25.70;71.99
44385;BME280;30101;32.778;34.994;2022-07-23T19:46:34;96987.81;;;25.71;71.92
44385;BME280;30101;32.778;34.994;2022-07-23T19:51:38;96983.97;;;25.72;72.07
44385;BME280;30101;32.778;34.994;2022-07-23T19:56:42;96985.09;;;25.71;72.16
44385;BME280;30101;32.778;34.994;2022-07-23T20:01:46;96978.31;;;25.68;72.42
44385;BME280;30101;32.778;34.994;2022-07-23T20:06:50;96976.56;;;25.64;72.40
44385;BME280;30101;32.778;34.994;2022-07-23T20:11:54;96970.63;;;25.62;72.45
44385;BME280;30101;32.778;34.994;2022-07-23T20:16:57;96970.97;;;25.60;72.13
44385;BME280;30101;32.778;34.994;2022-07-23T20:22:01;96968.88;;;25.57;72.55
44385;BME280;30101;32.778;34.994;2022-07-23T20:27:04;96965.84;;;25.50;72.76
44385;BME280;30101;32.778;34.994;2022-07-23T20:32:10;96969.72;;;25.49;72.85
44385;BME280;30101;32.778;34.994;2022-07-23T20:37:13;96966.81;;;25.45;72.82
44385;BME280;30101;32.778;34.994;2022-07-23T20:42:17;96965.88;;;25.41;73.09
44385;BME280;30101;32.778;34.994;2022-07-23T20:47:20;96962.19;;;25.37;73.13
44385;BME280;30101;32.778;34.994;2022-07-23T20:52:24;96962.03;;;25.34;73.43
44385;BME280;30101;32.778;34.994;2022-07-23T20:57:28;96952.41;;;25.27;73.48
44385;BME280;30101;32.778;34.994;2022-07-23T21:02:31;96952.06;;;25.20;73.39
44385;BME280;30101;32.778;34.994;2022-07-23T21:07:35;96950.34;;;25.16;73.15
44385;BME280;30101;32.778;34.994;2022-07-23T21:12:39;96940.38;;;25.11;73.41
44385;BME280;30101;32.778;34.994;2022-07-23T21:17:43;96939.09;;;25.09;73.20
44385;BME280;30101;32.778;34.994;2022-07-23T21:22:48;96936.19;;;25.05;73.44
44385;BME280;30101;32.778;34.994;2022-07-23T21:27:52;96928.63;;;25.02;73.01
44385;BME280;30101;32.778;34.994;2022-07-23T21:32:56;96926.53;;;24.99;72.89
44385;BME280;30101;32.778;34.994;2022-07-23T21:37:59;96923.34;;;24.97;72.93
44385;BME280;30101;32.778;34.994;2022-07-23T21:43:03;96917.72;;;24.93;72.83
44385;BME280;30101;32.778;34.994;2022-07-23T21:48:07;96914.03;;;24.89;72.71
44385;BME280;30101;32.778;34.994;2022-07-23T21:53:13;96917.41;;;24.86;72.99
44385;BME280;30101;32.778;34.994;2022-07-23T21:58:17;96912.28;;;24.85;73.14
44385;BME280;30101;32.778;34.994;2022-07-23T22:03:21;96903.56;;;24.83;72.87
44385;BME280;30101;32.778;34.994;2022-07-23T22:08:24;96901.97;;;24.82;72.88
44385;BME280;30101;32.778;34.994;2022-07-23T22:13:28;96895.25;;;24.79;72.85
44385;BME280;30101;32.778;34.994;2022-07-23T22:18:31;96884.66;;;24.78;72.97
44385;BME280;30101;32.778;34.994;2022-07-23T22:23:35;96883.06;;;24.77;72.91
44385;BME280;30101;32.778;34.994;2022-07-23T22:28:39;96884.66;;;24.78;73.29
44385;BME280;30101;32.778;34.994;2022-07-23T22:33:42;96873.22;;;24.75;73.65
44385;BME280;30101;32.778;34.994;2022-07-23T22:38:46;96873.72;;;24.78;73.35
44385;BME280;30101;32.778;34.994;2022-07-23T22:43:55;96867.94;;;24.79;73.82
44385;BME280;30101;32.778;34.994;2022-07-23T22:48:59;96865.03;;;24.75;73.54
44385;BME280;30101;32.778;34.994;2022-07-23T22:54:03;96869.06;;;24.78;74.04
44385;BME280;30101;32.778;34.994;2022-07-23T22:59:07;96867.47;;;24.77;74.25
44385;BME280;30101;32.778;34.994;2022-07-23T23:04:31;96865.84;;;24.76;74.07
44385;BME280;30101;32.778;34.994;2022-07-23T23:09:35;96863.13;;;24.76;74.39
44385;BME280;30101;32.778;34.994;2022-07-23T23:14:39;96856.72;;;24.72;74.12
44385;BME280;30101;32.778;34.994;2022-07-23T23:19:43;96858.66;;;24.71;74.24
44385;BME280;30101;32.778;34.994;2022-07-23T23:24:46;96855.41;;;24.69;74.17
44385;BME280;30101;32.778;34.994;2022-07-23T23:29:50;96856.53;;;24.68;74.82
44385;BME280;30101;32.778;34.994;2022-07-23T23:34:53;96849.50;;;24.67;74.61
44385;BME280;30101;32.778;34.994;2022-07-23T23:39:57;96847.88;;;24.66;74.83
44385;BME280;30101;32.778;34.994;2022-07-23T23:45:01;96848.22;;;24.65;74.57
44385;BME280;30101;32.778;34.994;2022-07-23T23:50:05;96843.84;;;24.64;74.60
44385;BME280;30101;32.778;34.994;2022-07-23T23:55:09;96840.84;;;24.65;74.66
